sensor_id;sensor_type;location;lat;lon;timestamp;P1;durP1;ratioP1;P2;durP2;ratioP2
69381;SDS011;56560;50.692;12.844;2023-04-25T00:02:05;14.40;;;5.90;;
69381;SDS011;56560;50.692;12.844;2023-04-25T00:04:32;15.75;;;5.95;;
69381;SDS011;56560;50.692;12.844;2023-04-25T00:06:58;15.52;;;6.53;;
69381;SDS011;56560;50.692;12.844;2023-04-25T00:09:26;16.05;;;6.45;;
69381;SDS011;56560;50.692;12.844;2023-04-25T00:11:52;15.13;;;6.25;;
69381;SDS011;56560;50.692;12.844;2023-04-25T00:14:18;16.90;;;6.43;;
69381;SDS011;56560;50.692;12.844;2023-04-25T00:16:44;16.07;;;6.53;;
69381;SDS011;56560;50.692;12.844;2023-04-25T00:19:09;20.00;;;6.13;;
69381;SDS011;56560;50.692;12.844;2023-04-25T00:21:35;14.23;;;6.03;;
69381;SDS011;56560;50.692;12.844;2023-04-25T00:24:02;14.23;;;5.88;;
69381;SDS011;56560;50.692;12.844;2023-04-25T00:26:28;14.18;;;5.72;;
69381;SDS011;56560;50.692;12.844;2023-04-25T00:28:54;15.02;;;5.95;;
69381;SDS011;56560;50.692;12.844;2023-04-25T00:31:20;14.17;;;5.97;;
69381;SDS011;56560;50.692;12.844;2023-04-25T00:33:46;15.82;;;5.80;;
69381;SDS011;56560;50.692;12.844;2023-04-25T00:36:13;16.42;;;5.95;;
69381;SDS011;56560;50.692;12.844;2023-04-25T00:38:39;15.10;;;6.20;;
69381;SDS011;56560;50.692;12.844;2023-04-25T00:41:08;17.83;;;6.10;;
69381;SDS011;56560;50.692;12.844;2023-04-25T00:43:34;15.70;;;6.47;;
69381;SDS011;56560;50.692;12.844;2023-04-25T00:46:01;15.02;;;5.72;;
69381;SDS011;56560;50.692;12.844;2023-04-25T00:48:27;15.50;;;6.50;;
69381;SDS011;56560;50.692;12.844;2023-04-25T00:50:53;16.75;;;6.15;;
69381;SDS011;56560;50.692;12.844;2023-04-25T00:53:22;20.90;;;6.40;;
69381;SDS011;56560;50.692;12.844;2023-04-25T00:55:48;16.73;;;6.15;;
69381;SDS011;56560;50.692;12.844;2023-04-25T00:58:16;17.35;;;6.82;;
69381;SDS011;56560;50.692;12.844;2023-04-25T01:00:45;15.57;;;6.05;;
69381;SDS011;56560;50.692;12.844;2023-04-25T01:03:15;16.23;;;6.27;;
69381;SDS011;56560;50.692;12.844;2023-04-25T01:05:44;23.70;;;8.88;;
69381;SDS011;56560;50.692;12.844;2023-04-25T01:08:10;29.25;;;9.35;;
69381;SDS011;56560;50.692;12.844;2023-04-25T01:10:37;18.08;;;6.47;;
69381;SDS011;56560;50.692;12.844;2023-04-25T01:13:03;16.93;;;6.63;;
69381;SDS011;56560;50.692;12.844;2023-04-25T01:15:29;18.75;;;6.80;;
69381;SDS011;56560;50.692;12.844;2023-04-25T01:17:55;17.48;;;6.82;;
69381;SDS011;56560;50.692;12.844;2023-04-25T01:20:21;18.67;;;7.10;;
69381;SDS011;56560;50.692;12.844;2023-04-25T01:22:48;17.33;;;5.63;;
69381;SDS011;56560;50.692;12.844;2023-04-25T01:25:15;14.60;;;6.00;;
69381;SDS011;56560;50.692;12.844;2023-04-25T01:27:41;15.13;;;5.90;;
69381;SDS011;56560;50.692;12.844;2023-04-25T01:30:07;15.50;;;5.93;;
69381;SDS011;56560;50.692;12.844;2023-04-25T01:32:33;15.88;;;5.78;;
69381;SDS011;56560;50.692;12.844;2023-04-25T01:35:04;13.32;;;5.45;;
69381;SDS011;56560;50.692;12.844;2023-04-25T01:37:34;15.15;;;6.00;;
69381;SDS011;56560;50.692;12.844;2023-04-25T01:40:04;13.63;;;5.47;;
69381;SDS011;56560;50.692;12.844;2023-04-25T01:42:31;15.65;;;5.68;;
69381;SDS011;56560;50.692;12.844;2023-04-25T01:44:58;16.50;;;6.30;;
69381;SDS011;56560;50.692;12.844;2023-04-25T01:47:24;14.95;;;5.97;;
69381;SDS011;56560;50.692;12.844;2023-04-25T01:49:50;15.77;;;6.18;;
69381;SDS011;56560;50.692;12.844;2023-04-25T01:52:16;16.57;;;6.50;;
69381;SDS011;56560;50.692;12.844;2023-04-25T01:54:41;16.27;;;6.13;;
69381;SDS011;56560;50.692;12.844;2023-04-25T01:57:10;13.20;;;5.80;;
69381;SDS011;56560;50.692;12.844;2023-04-25T01:59:36;15.70;;;5.90;;
69381;SDS011;56560;50.692;12.844;2023-04-25T02:02:02;15.70;;;5.82;;
69381;SDS011;56560;50.692;12.844;2023-04-25T02:04:30;14.52;;;5.53;;
69381;SDS011;56560;50.692;12.844;2023-04-25T02:06:56;16.77;;;5.83;;
69381;SDS011;56560;50.692;12.844;2023-04-25T02:09:22;15.07;;;5.90;;
69381;SDS011;56560;50.692;12.844;2023-04-25T02:11:48;17.88;;;6.05;;
69381;SDS011;56560;50.692;12.844;2023-04-25T02:14:14;18.50;;;6.57;;
69381;SDS011;56560;50.692;12.844;2023-04-25T02:16:39;15.27;;;6.07;;
69381;SDS011;56560;50.692;12.844;2023-04-25T02:19:05;17.63;;;6.53;;
69381;SDS011;56560;50.692;12.844;2023-04-25T02:21:31;17.48;;;6.57;;
69381;SDS011;56560;50.692;12.844;2023-04-25T02:23:57;15.68;;;6.35;;
69381;SDS011;56560;50.692;12.844;2023-04-25T02:26:23;14.23;;;6.30;;
69381;SDS011;56560;50.692;12.844;2023-04-25T02:28:49;15.05;;;6.47;;
69381;SDS011;56560;50.692;12.844;2023-04-25T02:31:15;14.57;;;6.15;;
69381;SDS011;56560;50.692;12.844;2023-04-25T02:33:41;14.17;;;6.07;;
69381;SDS011;56560;50.692;12.844;2023-04-25T02:36:08;16.15;;;6.65;;
69381;SDS011;56560;50.692;12.844;2023-04-25T02:38:33;14.85;;;6.30;;
69381;SDS011;56560;50.692;12.844;2023-04-25T02:40:59;15.20;;;6.30;;
69381;SDS011;56560;50.692;12.844;2023-04-25T02:43:25;16.05;;;6.43;;
69381;SDS011;56560;50.692;12.844;2023-04-25T02:45:50;16.45;;;6.80;;
69381;SDS011;56560;50.692;12.844;2023-04-25T02:48:16;15.87;;;6.30;;
69381;SDS011;56560;50.692;12.844;2023-04-25T02:50:42;15.20;;;6.82;;
69381;SDS011;56560;50.692;12.844;2023-04-25T02:53:07;16.63;;;6.23;;
69381;SDS011;56560;50.692;12.844;2023-04-25T02:55:33;12.73;;;4.55;;
69381;SDS011;56560;50.692;12.844;2023-04-25T02:57:58;14.77;;;6.60;;
69381;SDS011;56560;50.692;12.844;2023-04-25T03:00:24;12.60;;;4.95;;
69381;SDS011;56560;50.692;12.844;2023-04-25T03:02:50;17.17;;;5.23;;
69381;SDS011;56560;50.692;12.844;2023-04-25T03:05:16;17.88;;;6.40;;
69381;SDS011;56560;50.692;12.844;2023-04-25T03:07:42;14.85;;;6.28;;
69381;SDS011;56560;50.692;12.844;2023-04-25T03:10:09;15.73;;;5.95;;
69381;SDS011;56560;50.692;12.844;2023-04-25T03:12:35;15.05;;;5.63;;
69381;SDS011;56560;50.692;12.844;2023-04-25T03:15:01;14.40;;;5.55;;
69381;SDS011;56560;50.692;12.844;2023-04-25T03:17:27;13.95;;;5.32;;
69381;SDS011;56560;50.692;12.844;2023-04-25T03:19:52;14.47;;;6.03;;
69381;SDS011;56560;50.692;12.844;2023-04-25T03:22:18;16.55;;;6.28;;
69381;SDS011;56560;50.692;12.844;2023-04-25T03:24:44;14.55;;;5.90;;
69381;SDS011;56560;50.692;12.844;2023-04-25T03:27:12;14.88;;;6.07;;
69381;SDS011;56560;50.692;12.844;2023-04-25T03:29:38;16.90;;;6.43;;
69381;SDS011;56560;50.692;12.844;2023-04-25T03:32:03;16.33;;;6.63;;
69381;SDS011;56560;50.692;12.844;2023-04-25T03:34:29;14.77;;;6.38;;
69381;SDS011;56560;50.692;12.844;2023-04-25T03:36:55;15.40;;;6.40;;
69381;SDS011;56560;50.692;12.844;2023-04-25T03:39:21;16.42;;;6.68;;
69381;SDS011;56560;50.692;12.844;2023-04-25T03:41:46;14.17;;;6.07;;
69381;SDS011;56560;50.692;12.844;2023-04-25T03:44:12;16.17;;;6.85;;
69381;SDS011;56560;50.692;12.844;2023-04-25T03:46:38;14.43;;;6.60;;
69381;SDS011;56560;50.692;12.844;2023-04-25T03:49:03;17.80;;;6.57;;
69381;SDS011;56560;50.692;12.844;2023-04-25T03:51:29;15.83;;;6.83;;
69381;SDS011;56560;50.692;12.844;2023-04-25T03:53:55;19.30;;;7.72;;
69381;SDS011;56560;50.692;12.844;2023-04-25T03:56:21;16.20;;;6.83;;
69381;SDS011;56560;50.692;12.844;2023-04-25T03:58:47;14.05;;;6.50;;
69381;SDS011;56560;50.692;12.844;2023-04-25T04:01:13;14.80;;;6.57;;
69381;SDS011;56560;50.692;12.844;2023-04-25T04:03:38;16.00;;;6.70;;
69381;SDS011;56560;50.692;12.844;2023-04-25T04:06:04;15.30;;;6.40;;
69381;SDS011;56560;50.692;12.844;2023-04-25T04:08:31;16.03;;;6.90;;
69381;SDS011;56560;50.692;12.844;2023-04-25T04:10:57;16.80;;;7.10;;
69381;SDS011;56560;50.692;12.844;2023-04-25T04:13:25;15.73;;;6.95;;
69381;SDS011;56560;50.692;12.844;2023-04-25T04:15:51;17.17;;;6.80;;
69381;SDS011;56560;50.692;12.844;2023-04-25T04:18:18;17.15;;;6.57;;
69381;SDS011;56560;50.692;12.844;2023-04-25T04:20:48;20.07;;;6.53;;
69381;SDS011;56560;50.692;12.844;2023-04-25T04:23:14;17.83;;;7.15;;
69381;SDS011;56560;50.692;12.844;2023-04-25T04:25:39;16.90;;;7.20;;
69381;SDS011;56560;50.692;12.844;2023-04-25T04:28:05;17.60;;;7.00;;
69381;SDS011;56560;50.692;12.844;2023-04-25T04:30:32;20.83;;;9.02;;
69381;SDS011;56560;50.692;12.844;2023-04-25T04:33:01;20.50;;;7.97;;
69381;SDS011;56560;50.692;12.844;2023-04-25T04:35:27;16.90;;;7.07;;
69381;SDS011;56560;50.692;12.844;2023-04-25T04:37:53;19.55;;;7.10;;
69381;SDS011;56560;50.692;12.844;2023-04-25T04:40:19;17.48;;;7.10;;
69381;SDS011;56560;50.692;12.844;2023-04-25T04:42:45;15.57;;;7.23;;
69381;SDS011;56560;50.692;12.844;2023-04-25T04:45:11;16.65;;;6.72;;
69381;SDS011;56560;50.692;12.844;2023-04-25T04:47:37;15.15;;;6.80;;
69381;SDS011;56560;50.692;12.844;2023-04-25T04:50:04;16.38;;;7.05;;
69381;SDS011;56560;50.692;12.844;2023-04-25T04:52:33;18.15;;;7.20;;
69381;SDS011;56560;50.692;12.844;2023-04-25T04:54:59;16.30;;;7.45;;
69381;SDS011;56560;50.692;12.844;2023-04-25T04:57:25;18.07;;;7.93;;
69381;SDS011;56560;50.692;12.844;2023-04-25T04:59:51;17.55;;;7.57;;
69381;SDS011;56560;50.692;12.844;2023-04-25T05:02:17;20.13;;;8.43;;
69381;SDS011;56560;50.692;12.844;2023-04-25T05:04:43;18.40;;;8.43;;
69381;SDS011;56560;50.692;12.844;2023-04-25T05:07:08;18.10;;;7.97;;
69381;SDS011;56560;50.692;12.844;2023-04-25T05:09:34;16.55;;;7.03;;
69381;SDS011;56560;50.692;12.844;2023-04-25T05:12:00;21.52;;;9.80;;
69381;SDS011;56560;50.692;12.844;2023-04-25T05:14:26;22.93;;;9.77;;
69381;SDS011;56560;50.692;12.844;2023-04-25T05:16:51;18.80;;;8.93;;
69381;SDS011;56560;50.692;12.844;2023-04-25T05:19:17;18.60;;;8.10;;
69381;SDS011;56560;50.692;12.844;2023-04-25T05:21:43;17.75;;;7.32;;
69381;SDS011;56560;50.692;12.844;2023-04-25T05:24:09;18.27;;;7.20;;
69381;SDS011;56560;50.692;12.844;2023-04-25T05:26:34;19.58;;;8.02;;
69381;SDS011;56560;50.692;12.844;2023-04-25T05:29:00;17.30;;;7.30;;
69381;SDS011;56560;50.692;12.844;2023-04-25T05:31:26;16.67;;;6.75;;
69381;SDS011;56560;50.692;12.844;2023-04-25T05:33:51;15.73;;;6.97;;
69381;SDS011;56560;50.692;12.844;2023-04-25T05:36:20;15.83;;;7.20;;
69381;SDS011;56560;50.692;12.844;2023-04-25T05:38:46;17.65;;;7.13;;
69381;SDS011;56560;50.692;12.844;2023-04-25T05:41:12;16.90;;;6.88;;
69381;SDS011;56560;50.692;12.844;2023-04-25T05:43:37;18.50;;;6.70;;
69381;SDS011;56560;50.692;12.844;2023-04-25T05:46:03;13.07;;;4.97;;
69381;SDS011;56560;50.692;12.844;2023-04-25T05:48:29;15.35;;;5.38;;
69381;SDS011;56560;50.692;12.844;2023-04-25T05:50:55;13.93;;;5.53;;
69381;SDS011;56560;50.692;12.844;2023-04-25T05:53:21;13.07;;;4.82;;
69381;SDS011;56560;50.692;12.844;2023-04-25T05:55:47;14.73;;;5.90;;
69381;SDS011;56560;50.692;12.844;2023-04-25T05:58:12;13.35;;;5.45;;
69381;SDS011;56560;50.692;12.844;2023-04-25T06:00:38;14.20;;;4.87;;
69381;SDS011;56560;50.692;12.844;2023-04-25T06:03:03;13.13;;;5.22;;
69381;SDS011;56560;50.692;12.844;2023-04-25T06:05:29;14.43;;;5.93;;
69381;SDS011;56560;50.692;12.844;2023-04-25T06:07:55;12.50;;;5.35;;
69381;SDS011;56560;50.692;12.844;2023-04-25T06:10:21;11.27;;;5.10;;
69381;SDS011;56560;50.692;12.844;2023-04-25T06:12:47;13.07;;;5.68;;
69381;SDS011;56560;50.692;12.844;2023-04-25T06:15:13;12.60;;;5.38;;
69381;SDS011;56560;50.692;12.844;2023-04-25T06:17:39;13.47;;;4.73;;
69381;SDS011;56560;50.692;12.844;2023-04-25T06:20:04;13.10;;;5.47;;
69381;SDS011;56560;50.692;12.844;2023-04-25T06:22:31;12.27;;;5.33;;
69381;SDS011;56560;50.692;12.844;2023-04-25T06:24:56;13.32;;;5.30;;
69381;SDS011;56560;50.692;12.844;2023-04-25T06:27:23;14.25;;;5.53;;
69381;SDS011;56560;50.692;12.844;2023-04-25T06:29:49;11.15;;;3.70;;
69381;SDS011;56560;50.692;12.844;2023-04-25T06:32:15;12.53;;;4.27;;
69381;SDS011;56560;50.692;12.844;2023-04-25T06:34:42;13.70;;;4.60;;
69381;SDS011;56560;50.692;12.844;2023-04-25T06:37:08;13.80;;;4.50;;
69381;SDS011;56560;50.692;12.844;2023-04-25T06:39:34;12.57;;;4.55;;
69381;SDS011;56560;50.692;12.844;2023-04-25T06:42:00;12.47;;;4.90;;
69381;SDS011;56560;50.692;12.844;2023-04-25T06:44:25;15.73;;;5.40;;
69381;SDS011;56560;50.692;12.844;2023-04-25T06:46:51;14.93;;;5.40;;
69381;SDS011;56560;50.692;12.844;2023-04-25T06:49:17;13.45;;;5.03;;
69381;SDS011;56560;50.692;12.844;2023-04-25T06:51:42;13.63;;;5.40;;
69381;SDS011;56560;50.692;12.844;2023-04-25T06:54:08;13.88;;;5.25;;
69381;SDS011;56560;50.692;12.844;2023-04-25T06:56:34;15.77;;;5.40;;
69381;SDS011;56560;50.692;12.844;2023-04-25T06:58:59;14.20;;;5.32;;
69381;SDS011;56560;50.692;12.844;2023-04-25T07:01:25;18.85;;;5.97;;
69381;SDS011;56560;50.692;12.844;2023-04-25T07:03:51;19.50;;;6.50;;
69381;SDS011;56560;50.692;12.844;2023-04-25T07:06:17;16.63;;;5.95;;
69381;SDS011;56560;50.692;12.844;2023-04-25T07:08:42;22.67;;;7.55;;
69381;SDS011;56560;50.692;12.844;2023-04-25T07:11:08;16.80;;;6.27;;
69381;SDS011;56560;50.692;12.844;2023-04-25T07:13:34;15.85;;;6.40;;
69381;SDS011;56560;50.692;12.844;2023-04-25T07:15:59;11.77;;;4.30;;
69381;SDS011;56560;50.692;12.844;2023-04-25T07:18:25;16.40;;;6.25;;
69381;SDS011;56560;50.692;12.844;2023-04-25T07:20:51;10.00;;;3.80;;
69381;SDS011;56560;50.692;12.844;2023-04-25T07:23:16;13.32;;;5.03;;
69381;SDS011;56560;50.692;12.844;2023-04-25T07:25:42;12.03;;;4.77;;
69381;SDS011;56560;50.692;12.844;2023-04-25T07:28:08;13.55;;;5.68;;
69381;SDS011;56560;50.692;12.844;2023-04-25T07:30:34;16.53;;;6.53;;
69381;SDS011;56560;50.692;12.844;2023-04-25T07:33:02;12.35;;;5.47;;
69381;SDS011;56560;50.692;12.844;2023-04-25T07:35:28;13.27;;;5.07;;
69381;SDS011;56560;50.692;12.844;2023-04-25T07:37:53;11.57;;;4.40;;
69381;SDS011;56560;50.692;12.844;2023-04-25T07:40:22;11.63;;;4.30;;
69381;SDS011;56560;50.692;12.844;2023-04-25T07:42:48;12.45;;;4.60;;
69381;SDS011;56560;50.692;12.844;2023-04-25T07:45:13;13.43;;;5.10;;
69381;SDS011;56560;50.692;12.844;2023-04-25T07:47:39;12.53;;;4.77;;
69381;SDS011;56560;50.692;12.844;2023-04-25T07:50:05;13.55;;;4.93;;
69381;SDS011;56560;50.692;12.844;2023-04-25T07:52:31;13.13;;;5.40;;
69381;SDS011;56560;50.692;12.844;2023-04-25T07:54:57;13.43;;;5.30;;
69381;SDS011;56560;50.692;12.844;2023-04-25T07:57:23;14.38;;;5.70;;
69381;SDS011;56560;50.692;12.844;2023-04-25T07:59:49;14.67;;;5.73;;
69381;SDS011;56560;50.692;12.844;2023-04-25T08:02:15;13.32;;;5.25;;
69381;SDS011;56560;50.692;12.844;2023-04-25T08:04:40;12.67;;;5.47;;
69381;SDS011;56560;50.692;12.844;2023-04-25T08:07:06;13.25;;;5.53;;
69381;SDS011;56560;50.692;12.844;2023-04-25T08:09:31;15.93;;;5.47;;
69381;SDS011;56560;50.692;12.844;2023-04-25T08:12:01;13.75;;;5.20;;
69381;SDS011;56560;50.692;12.844;2023-04-25T08:14:28;15.52;;;6.30;;
69381;SDS011;56560;50.692;12.844;2023-04-25T08:16:56;13.43;;;5.20;;
69381;SDS011;56560;50.692;12.844;2023-04-25T08:19:21;11.32;;;4.78;;
69381;SDS011;56560;50.692;12.844;2023-04-25T08:21:53;12.27;;;5.30;;
69381;SDS011;56560;50.692;12.844;2023-04-25T08:24:20;14.25;;;5.72;;
69381;SDS011;56560;50.692;12.844;2023-04-25T08:26:46;14.43;;;5.70;;
69381;SDS011;56560;50.692;12.844;2023-04-25T08:29:12;13.00;;;5.60;;
69381;SDS011;56560;50.692;12.844;2023-04-25T08:31:37;13.27;;;5.80;;
69381;SDS011;56560;50.692;12.844;2023-04-25T08:34:03;12.68;;;5.20;;
69381;SDS011;56560;50.692;12.844;2023-04-25T08:36:29;13.40;;;5.40;;
69381;SDS011;56560;50.692;12.844;2023-04-25T08:38:57;12.38;;;5.32;;
69381;SDS011;56560;50.692;12.844;2023-04-25T08:41:23;13.07;;;5.10;;
69381;SDS011;56560;50.692;12.844;2023-04-25T08:43:50;13.13;;;5.10;;
69381;SDS011;56560;50.692;12.844;2023-04-25T08:46:18;13.63;;;5.00;;
69381;SDS011;56560;50.692;12.844;2023-04-25T08:48:44;13.18;;;5.90;;
69381;SDS011;56560;50.692;12.844;2023-04-25T08:51:13;12.13;;;5.00;;
69381;SDS011;56560;50.692;12.844;2023-04-25T08:53:46;14.25;;;5.55;;
69381;SDS011;56560;50.692;12.844;2023-04-25T08:56:15;13.73;;;5.75;;
69381;SDS011;56560;50.692;12.844;2023-04-25T08:58:43;13.77;;;5.47;;
69381;SDS011;56560;50.692;12.844;2023-04-25T09:01:11;12.93;;;5.25;;
69381;SDS011;56560;50.692;12.844;2023-04-25T09:03:37;12.45;;;5.10;;
69381;SDS011;56560;50.692;12.844;2023-04-25T09:06:03;13.70;;;5.75;;
69381;SDS011;56560;50.692;12.844;2023-04-25T09:08:29;13.45;;;5.35;;
69381;SDS011;56560;50.692;12.844;2023-04-25T09:10:55;12.93;;;5.60;;
69381;SDS011;56560;50.692;12.844;2023-04-25T09:13:27;14.83;;;4.90;;
69381;SDS011;56560;50.692;12.844;2023-04-25T09:15:54;13.68;;;5.15;;
69381;SDS011;56560;50.692;12.844;2023-04-25T09:18:39;13.85;;;6.03;;
69381;SDS011;56560;50.692;12.844;2023-04-25T09:21:09;14.93;;;5.95;;
69381;SDS011;56560;50.692;12.844;2023-04-25T09:23:48;16.20;;;5.77;;
69381;SDS011;56560;50.692;12.844;2023-04-25T09:26:17;16.38;;;5.90;;
69381;SDS011;56560;50.692;12.844;2023-04-25T09:28:44;14.85;;;5.68;;
69381;SDS011;56560;50.692;12.844;2023-04-25T09:31:10;14.00;;;5.63;;
69381;SDS011;56560;50.692;12.844;2023-04-25T09:33:37;15.07;;;5.32;;
69381;SDS011;56560;50.692;12.844;2023-04-25T09:36:06;16.50;;;5.80;;
69381;SDS011;56560;50.692;12.844;2023-04-25T09:38:40;14.73;;;5.50;;
69381;SDS011;56560;50.692;12.844;2023-04-25T09:41:07;16.60;;;5.78;;
69381;SDS011;56560;50.692;12.844;2023-04-25T09:43:35;13.95;;;5.55;;
69381;SDS011;56560;50.692;12.844;2023-04-25T09:46:01;16.15;;;6.20;;
69381;SDS011;56560;50.692;12.844;2023-04-25T09:48:28;13.17;;;4.80;;
69381;SDS011;56560;50.692;12.844;2023-04-25T09:51:07;14.57;;;5.40;;
69381;SDS011;56560;50.692;12.844;2023-04-25T09:53:40;13.45;;;5.55;;
69381;SDS011;56560;50.692;12.844;2023-04-25T09:56:08;12.15;;;4.93;;
69381;SDS011;56560;50.692;12.844;2023-04-25T09:58:36;11.10;;;4.40;;
69381;SDS011;56560;50.692;12.844;2023-04-25T10:01:04;9.87;;;3.27;;
69381;SDS011;56560;50.692;12.844;2023-04-25T10:03:33;9.35;;;3.55;;
69381;SDS011;56560;50.692;12.844;2023-04-25T10:06:00;8.43;;;3.22;;
69381;SDS011;56560;50.692;12.844;2023-04-25T10:08:32;9.40;;;3.75;;
69381;SDS011;56560;50.692;12.844;2023-04-25T10:11:03;9.70;;;4.32;;
69381;SDS011;56560;50.692;12.844;2023-04-25T10:13:30;10.70;;;4.27;;
69381;SDS011;56560;50.692;12.844;2023-04-25T10:15:57;10.98;;;4.45;;
69381;SDS011;56560;50.692;12.844;2023-04-25T10:18:25;12.50;;;4.55;;
69381;SDS011;56560;50.692;12.844;2023-04-25T10:20:53;12.00;;;4.18;;
69381;SDS011;56560;50.692;12.844;2023-04-25T10:23:26;11.02;;;4.57;;
69381;SDS011;56560;50.692;12.844;2023-04-25T10:25:54;10.23;;;3.90;;
69381;SDS011;56560;50.692;12.844;2023-04-25T10:28:20;10.32;;;4.28;;
69381;SDS011;56560;50.692;12.844;2023-04-25T10:31:07;10.60;;;3.50;;
69381;SDS011;56560;50.692;12.844;2023-04-25T10:33:34;10.20;;;3.90;;
69381;SDS011;56560;50.692;12.844;2023-04-25T10:36:17;13.00;;;4.75;;
69381;SDS011;56560;50.692;12.844;2023-04-25T10:38:44;13.03;;;5.43;;
69381;SDS011;56560;50.692;12.844;2023-04-25T10:41:11;13.68;;;5.45;;
69381;SDS011;56560;50.692;12.844;2023-04-25T10:43:44;13.23;;;5.85;;
69381;SDS011;56560;50.692;12.844;2023-04-25T10:56:20;14.02;;;5.07;;
69381;SDS011;56560;50.692;12.844;2023-04-25T10:59:10;10.18;;;2.72;;
69381;SDS011;56560;50.692;12.844;2023-04-25T11:01:46;11.55;;;4.40;;
69381;SDS011;56560;50.692;12.844;2023-04-25T11:04:23;13.93;;;5.90;;
69381;SDS011;56560;50.692;12.844;2023-04-25T11:07:03;13.60;;;5.93;;
69381;SDS011;56560;50.692;12.844;2023-04-25T11:10:05;16.00;;;6.25;;
69381;SDS011;56560;50.692;12.844;2023-04-25T11:12:31;15.93;;;6.10;;
69381;SDS011;56560;50.692;12.844;2023-04-25T11:15:01;14.73;;;5.83;;
69381;SDS011;56560;50.692;12.844;2023-04-25T11:17:28;15.98;;;6.28;;
69381;SDS011;56560;50.692;12.844;2023-04-25T11:19:54;15.15;;;6.80;;
69381;SDS011;56560;50.692;12.844;2023-04-25T11:22:24;15.18;;;6.70;;
69381;SDS011;56560;50.692;12.844;2023-04-25T11:24:52;14.18;;;6.45;;
69381;SDS011;56560;50.692;12.844;2023-04-25T11:27:20;16.13;;;6.30;;
69381;SDS011;56560;50.692;12.844;2023-04-25T11:29:46;14.45;;;6.15;;
69381;SDS011;56560;50.692;12.844;2023-04-25T11:32:15;19.13;;;7.13;;
69381;SDS011;56560;50.692;12.844;2023-04-25T11:34:43;14.30;;;6.13;;
69381;SDS011;56560;50.692;12.844;2023-04-25T11:37:10;16.65;;;6.78;;
69381;SDS011;56560;50.692;12.844;2023-04-25T11:39:37;15.82;;;6.93;;
69381;SDS011;56560;50.692;12.844;2023-04-25T11:42:03;16.67;;;7.50;;
69381;SDS011;56560;50.692;12.844;2023-04-25T11:44:30;15.52;;;6.60;;
69381;SDS011;56560;50.692;12.844;2023-04-25T11:46:56;15.45;;;6.10;;
69381;SDS011;56560;50.692;12.844;2023-04-25T11:49:22;13.45;;;5.55;;
69381;SDS011;56560;50.692;12.844;2023-04-25T11:51:49;14.90;;;6.65;;
69381;SDS011;56560;50.692;12.844;2023-04-25T11:54:18;20.42;;;6.95;;
69381;SDS011;56560;50.692;12.844;2023-04-25T11:56:44;16.90;;;6.80;;
69381;SDS011;56560;50.692;12.844;2023-04-25T11:59:11;19.92;;;7.90;;
69381;SDS011;56560;50.692;12.844;2023-04-25T12:01:38;18.95;;;8.18;;
69381;SDS011;56560;50.692;12.844;2023-04-25T12:04:12;17.80;;;7.30;;
69381;SDS011;56560;50.692;12.844;2023-04-25T12:06:40;19.52;;;7.97;;
69381;SDS011;56560;50.692;12.844;2023-04-25T12:09:08;19.33;;;8.67;;
69381;SDS011;56560;50.692;12.844;2023-04-25T12:11:46;19.15;;;8.38;;
69381;SDS011;56560;50.692;12.844;2023-04-25T12:14:26;19.33;;;8.60;;
69381;SDS011;56560;50.692;12.844;2023-04-25T12:17:01;18.67;;;7.68;;
69381;SDS011;56560;50.692;12.844;2023-04-25T12:19:35;19.05;;;8.70;;
69381;SDS011;56560;50.692;12.844;2023-04-25T12:22:02;18.27;;;7.93;;
69381;SDS011;56560;50.692;12.844;2023-04-25T12:24:28;20.02;;;7.55;;
69381;SDS011;56560;50.692;12.844;2023-04-25T12:27:01;18.88;;;7.40;;
69381;SDS011;56560;50.692;12.844;2023-04-25T12:29:29;16.07;;;6.87;;
69381;SDS011;56560;50.692;12.844;2023-04-25T12:31:56;18.00;;;7.13;;
69381;SDS011;56560;50.692;12.844;2023-04-25T12:34:23;18.83;;;7.95;;
69381;SDS011;56560;50.692;12.844;2023-04-25T12:36:50;19.35;;;8.05;;
69381;SDS011;56560;50.692;12.844;2023-04-25T12:39:21;18.45;;;8.25;;
69381;SDS011;56560;50.692;12.844;2023-04-25T12:41:48;18.13;;;7.23;;
69381;SDS011;56560;50.692;12.844;2023-04-25T12:44:19;16.80;;;6.75;;
69381;SDS011;56560;50.692;12.844;2023-04-25T12:46:45;16.95;;;7.20;;
69381;SDS011;56560;50.692;12.844;2023-04-25T12:49:10;15.93;;;6.73;;
69381;SDS011;56560;50.692;12.844;2023-04-25T12:51:37;15.25;;;6.47;;
69381;SDS011;56560;50.692;12.844;2023-04-25T12:54:03;15.98;;;6.50;;
69381;SDS011;56560;50.692;12.844;2023-04-25T12:56:30;15.13;;;6.05;;
69381;SDS011;56560;50.692;12.844;2023-04-25T12:58:56;15.23;;;5.37;;
69381;SDS011;56560;50.692;12.844;2023-04-25T13:01:23;13.82;;;5.60;;
69381;SDS011;56560;50.692;12.844;2023-04-25T13:03:49;14.32;;;5.55;;
69381;SDS011;56560;50.692;12.844;2023-04-25T13:06:15;15.50;;;5.70;;
69381;SDS011;56560;50.692;12.844;2023-04-25T13:08:41;14.50;;;5.35;;
69381;SDS011;56560;50.692;12.844;2023-04-25T13:11:07;13.35;;;5.28;;
69381;SDS011;56560;50.692;12.844;2023-04-25T13:13:33;12.68;;;5.10;;
69381;SDS011;56560;50.692;12.844;2023-04-25T13:16:00;14.77;;;5.23;;
69381;SDS011;56560;50.692;12.844;2023-04-25T13:18:30;14.02;;;5.95;;
69381;SDS011;56560;50.692;12.844;2023-04-25T13:20:56;15.23;;;5.95;;
69381;SDS011;56560;50.692;12.844;2023-04-25T13:23:24;14.30;;;5.80;;
69381;SDS011;56560;50.692;12.844;2023-04-25T13:25:51;20.13;;;6.40;;
69381;SDS011;56560;50.692;12.844;2023-04-25T13:28:17;15.73;;;5.53;;
69381;SDS011;56560;50.692;12.844;2023-04-25T13:30:42;16.08;;;5.60;;
69381;SDS011;56560;50.692;12.844;2023-04-25T13:33:08;12.93;;;4.30;;
69381;SDS011;56560;50.692;12.844;2023-04-25T13:35:34;15.88;;;6.68;;
69381;SDS011;56560;50.692;12.844;2023-04-25T13:38:01;15.98;;;5.18;;
69381;SDS011;56560;50.692;12.844;2023-04-25T13:40:27;14.63;;;4.90;;
69381;SDS011;56560;50.692;12.844;2023-04-25T13:42:52;13.40;;;4.73;;
69381;SDS011;56560;50.692;12.844;2023-04-25T13:45:19;12.50;;;4.57;;
69381;SDS011;56560;50.692;12.844;2023-04-25T13:47:45;14.15;;;4.90;;
69381;SDS011;56560;50.692;12.844;2023-04-25T13:50:11;13.80;;;4.87;;
69381;SDS011;56560;50.692;12.844;2023-04-25T13:52:36;15.27;;;4.80;;
69381;SDS011;56560;50.692;12.844;2023-04-25T13:55:02;13.87;;;4.50;;
69381;SDS011;56560;50.692;12.844;2023-04-25T13:57:30;14.90;;;4.70;;
69381;SDS011;56560;50.692;12.844;2023-04-25T13:59:58;14.35;;;5.25;;
69381;SDS011;56560;50.692;12.844;2023-04-25T14:02:24;11.63;;;4.60;;
69381;SDS011;56560;50.692;12.844;2023-04-25T14:04:51;14.40;;;4.45;;
69381;SDS011;56560;50.692;12.844;2023-04-25T14:07:17;14.50;;;4.05;;
69381;SDS011;56560;50.692;12.844;2023-04-25T14:09:44;13.07;;;4.50;;
69381;SDS011;56560;50.692;12.844;2023-04-25T14:12:10;12.45;;;4.47;;
69381;SDS011;56560;50.692;12.844;2023-04-25T14:14:36;16.53;;;4.80;;
69381;SDS011;56560;50.692;12.844;2023-04-25T14:17:02;14.05;;;5.03;;
69381;SDS011;56560;50.692;12.844;2023-04-25T14:19:28;15.23;;;5.00;;
69381;SDS011;56560;50.692;12.844;2023-04-25T14:21:54;13.33;;;4.80;;
69381;SDS011;56560;50.692;12.844;2023-04-25T14:24:20;11.50;;;4.43;;
69381;SDS011;56560;50.692;12.844;2023-04-25T14:26:46;14.27;;;5.85;;
69381;SDS011;56560;50.692;12.844;2023-04-25T14:29:11;12.40;;;4.63;;
69381;SDS011;56560;50.692;12.844;2023-04-25T14:31:38;14.77;;;5.47;;